sensor_id;sensor_type;location;lat;lon;timestamp;P1;durP1;ratioP1;P2;durP2;ratioP2
62535;SDS011;48587;47.514;18.918;2022-07-23T00:04:11;5.20;;;4.20;;
62535;SDS011;48587;47.514;18.918;2022-07-23T00:09:12;4.50;;;4.00;;
62535;SDS011;48587;47.514;18.918;2022-07-23T00:14:13;6.90;;;4.20;;
62535;SDS011;48587;47.514;18.918;2022-07-23T00:19:14;6.10;;;4.40;;
62535;SDS011;48587;47.514;18.918;2022-07-23T00:24:15;5.20;;;4.10;;
62535;SDS011;48587;47.514;18.918;2022-07-23T00:29:16;8.40;;;5.10;;
62535;SDS011;48587;47.514;18.918;2022-07-23T00:34:17;4.70;;;4.20;;
62535;SDS011;48587;47.514;18.918;2022-07-23T00:39:19;8.10;;;4.30;;
62535;SDS011;48587;47.514;18.918;2022-07-23T00:44:22;5.40;;;4.20;;
62535;SDS011;48587;47.514;18.918;2022-07-23T00:49:27;5.80;;;4.20;;
62535;SDS011;48587;47.514;18.918;2022-07-23T00:54:29;6.20;;;4.30;;
62535;SDS011;48587;47.514;18.918;2022-07-23T00:59:31;6.80;;;4.70;;
62535;SDS011;48587;47.514;18.918;2022-07-23T01:04:31;6.70;;;4.80;;
62535;SDS011;48587;47.514;18.918;2022-07-23T01:09:32;4.90;;;4.40;;
62535;SDS011;48587;47.514;18.918;2022-07-23T01:14:33;6.90;;;4.70;;
62535;SDS011;48587;47.514;18.918;2022-07-23T01:19:34;6.40;;;4.30;;
62535;SDS011;48587;47.514;18.918;2022-07-23T01:24:35;5.60;;;4.20;;
62535;SDS011;48587;47.514;18.918;2022-07-23T01:29:39;5.80;;;4.50;;
62535;SDS011;48587;47.514;18.918;2022-07-23T01:34:49;6.10;;;4.20;;
62535;SDS011;48587;47.514;18.918;2022-07-23T01:39:50;5.70;;;4.40;;
62535;SDS011;48587;47.514;18.918;2022-07-23T01:44:50;5.00;;;4.40;;
62535;SDS011;48587;47.514;18.918;2022-07-23T01:49:54;8.30;;;4.70;;
62535;SDS011;48587;47.514;18.918;2022-07-23T01:55:07;6.10;;;5.00;;
62535;SDS011;48587;47.514;18.918;2022-07-23T02:00:08;7.00;;;5.20;;
62535;SDS011;48587;47.514;18.918;2022-07-23T02:05:18;7.00;;;4.80;;
62535;SDS011;48587;47.514;18.918;2022-07-23T02:10:20;4.90;;;4.30;;
62535;SDS011;48587;47.514;18.918;2022-07-23T02:15:21;7.70;;;4.90;;
62535;SDS011;48587;47.514;18.918;2022-07-23T02:20:23;6.10;;;5.00;;
62535;SDS011;48587;47.514;18.918;2022-07-23T02:25:24;7.50;;;5.20;;
62535;SDS011;48587;47.514;18.918;2022-07-23T02:30:28;6.00;;;4.70;;
62535;SDS011;48587;47.514;18.918;2022-07-23T02:35:29;7.10;;;4.80;;
62535;SDS011;48587;47.514;18.918;2022-07-23T02:40:32;6.60;;;4.90;;
62535;SDS011;48587;47.514;18.918;2022-07-23T02:45:33;7.00;;;4.40;;
62535;SDS011;48587;47.514;18.918;2022-07-23T02:50:35;5.40;;;4.80;;
62535;SDS011;48587;47.514;18.918;2022-07-23T02:55:36;6.10;;;4.70;;
62535;SDS011;48587;47.514;18.918;2022-07-23T03:00:37;8.60;;;4.90;;
62535;SDS011;48587;47.514;18.918;2022-07-23T03:05:38;6.00;;;4.60;;
62535;SDS011;48587;47.514;18.918;2022-07-23T03:10:39;5.50;;;4.40;;
62535;SDS011;48587;47.514;18.918;2022-07-23T03:15:40;6.40;;;4.90;;
62535;SDS011;48587;47.514;18.918;2022-07-23T03:20:41;6.20;;;4.60;;
62535;SDS011;48587;47.514;18.918;2022-07-23T03:25:43;7.00;;;5.00;;
62535;SDS011;48587;47.514;18.918;2022-07-23T03:30:45;6.80;;;5.10;;
62535;SDS011;48587;47.514;18.918;2022-07-23T03:35:47;11.10;;;5.10;;
62535;SDS011;48587;47.514;18.918;2022-07-23T03:40:53;5.40;;;4.70;;
62535;SDS011;48587;47.514;18.918;2022-07-23T03:45:54;7.00;;;4.70;;
62535;SDS011;48587;47.514;18.918;2022-07-23T03:50:55;7.50;;;4.60;;
62535;SDS011;48587;47.514;18.918;2022-07-23T03:55:56;20.20;;;5.00;;
62535;SDS011;48587;47.514;18.918;2022-07-23T04:00:57;10.80;;;5.40;;
62535;SDS011;48587;47.514;18.918;2022-07-23T04:05:58;7.00;;;5.10;;
62535;SDS011;48587;47.514;18.918;2022-07-23T04:10:59;10.90;;;5.10;;
62535;SDS011;48587;47.514;18.918;2022-07-23T04:16:01;8.20;;;4.70;;
62535;SDS011;48587;47.514;18.918;2022-07-23T04:21:03;10.10;;;5.10;;
62535;SDS011;48587;47.514;18.918;2022-07-23T04:26:04;7.40;;;4.30;;
62535;SDS011;48587;47.514;18.918;2022-07-23T04:31:05;7.40;;;4.70;;
62535;SDS011;48587;47.514;18.918;2022-07-23T04:36:07;7.80;;;4.80;;
62535;SDS011;48587;47.514;18.918;2022-07-23T04:41:08;7.80;;;4.90;;
62535;SDS011;48587;47.514;18.918;2022-07-23T04:46:09;9.00;;;5.30;;
62535;SDS011;48587;47.514;18.918;2022-07-23T04:51:16;7.00;;;4.90;;
62535;SDS011;48587;47.514;18.918;2022-07-23T04:56:17;8.10;;;5.00;;
62535;SDS011;48587;47.514;18.918;2022-07-23T05:01:19;7.00;;;4.90;;
62535;SDS011;48587;47.514;18.918;2022-07-23T05:06:20;10.00;;;5.70;;
62535;SDS011;48587;47.514;18.918;2022-07-23T05:11:21;10.50;;;5.00;;
62535;SDS011;48587;47.514;18.918;2022-07-23T05:16:22;7.30;;;5.20;;
62535;SDS011;48587;47.514;18.918;2022-07-23T05:21:24;10.10;;;4.70;;
62535;SDS011;48587;47.514;18.918;2022-07-23T05:26:27;9.00;;;4.70;;
62535;SDS011;48587;47.514;18.918;2022-07-23T05:31:27;5.80;;;4.70;;
62535;SDS011;48587;47.514;18.918;2022-07-23T05:36:28;9.20;;;4.80;;
62535;SDS011;48587;47.514;18.918;2022-07-23T05:41:32;5.90;;;4.50;;
62535;SDS011;48587;47.514;18.918;2022-07-23T05:46:34;7.20;;;4.90;;
62535;SDS011;48587;47.514;18.918;2022-07-23T05:51:39;6.80;;;4.50;;
62535;SDS011;48587;47.514;18.918;2022-07-23T05:56:40;5.50;;;4.60;;
62535;SDS011;48587;47.514;18.918;2022-07-23T06:01:41;8.50;;;4.30;;
62535;SDS011;48587;47.514;18.918;2022-07-23T06:06:44;5.70;;;4.60;;
62535;SDS011;48587;47.514;18.918;2022-07-23T06:11:45;6.10;;;4.50;;
62535;SDS011;48587;47.514;18.918;2022-07-23T06:16:46;6.40;;;4.30;;
62535;SDS011;48587;47.514;18.918;2022-07-23T06:21:47;11.00;;;5.00;;
62535;SDS011;48587;47.514;18.918;2022-07-23T06:26:49;9.40;;;4.60;;
62535;SDS011;48587;47.514;18.918;2022-07-23T06:31:50;8.10;;;4.50;;
62535;SDS011;48587;47.514;18.918;2022-07-23T06:36:51;6.70;;;4.50;;
62535;SDS011;48587;47.514;18.918;2022-07-23T06:41:52;6.40;;;4.40;;
62535;SDS011;48587;47.514;18.918;2022-07-23T06:46:53;7.00;;;4.10;;
62535;SDS011;48587;47.514;18.918;2022-07-23T06:51:55;5.70;;;4.20;;
62535;SDS011;48587;47.514;18.918;2022-07-23T06:56:56;10.00;;;4.90;;
62535;SDS011;48587;47.514;18.918;2022-07-23T07:01:56;6.30;;;4.00;;
62535;SDS011;48587;47.514;18.918;2022-07-23T07:06:58;6.00;;;4.30;;
62535;SDS011;48587;47.514;18.918;2022-07-23T07:11:59;8.00;;;4.40;;
62535;SDS011;48587;47.514;18.918;2022-07-23T07:17:00;9.50;;;4.70;;
62535;SDS011;48587;47.514;18.918;2022-07-23T07:22:02;7.40;;;4.30;;
62535;SDS011;48587;47.514;18.918;2022-07-23T07:27:03;5.60;;;4.20;;
62535;SDS011;48587;47.514;18.918;2022-07-23T07:32:04;9.40;;;3.90;;
62535;SDS011;48587;47.514;18.918;2022-07-23T07:37:05;7.10;;;3.80;;
62535;SDS011;48587;47.514;18.918;2022-07-23T07:42:06;6.70;;;3.20;;
62535;SDS011;48587;47.514;18.918;2022-07-23T07:47:07;7.30;;;3.60;;
62535;SDS011;48587;47.514;18.918;2022-07-23T07:52:08;4.40;;;3.50;;
62535;SDS011;48587;47.514;18.918;2022-07-23T07:57:10;10.00;;;3.60;;
62535;SDS011;48587;47.514;18.918;2022-07-23T08:02:11;4.90;;;3.50;;
62535;SDS011;48587;47.514;18.918;2022-07-23T08:07:11;5.20;;;3.40;;
62535;SDS011;48587;47.514;18.918;2022-07-23T08:12:13;6.10;;;3.30;;
62535;SDS011;48587;47.514;18.918;2022-07-23T08:17:14;10.60;;;4.30;;
62535;SDS011;48587;47.514;18.918;2022-07-23T08:22:15;6.40;;;3.50;;
62535;SDS011;48587;47.514;18.918;2022-07-23T08:27:16;7.50;;;4.50;;
62535;SDS011;48587;47.514;18.918;2022-07-23T08:32:17;11.60;;;4.30;;
62535;SDS011;48587;47.514;18.918;2022-07-23T08:37:18;7.60;;;3.70;;
62535;SDS011;48587;47.514;18.918;2022-07-23T08:42:18;7.30;;;4.20;;
62535;SDS011;48587;47.514;18.918;2022-07-23T08:47:21;7.50;;;4.10;;
62535;SDS011;48587;47.514;18.918;2022-07-23T08:52:22;18.20;;;4.90;;
62535;SDS011;48587;47.514;18.918;2022-07-23T08:57:23;8.20;;;3.60;;
62535;SDS011;48587;47.514;18.918;2022-07-23T09:02:24;7.00;;;3.80;;
62535;SDS011;48587;47.514;18.918;2022-07-23T09:07:25;8.00;;;3.40;;
62535;SDS011;48587;47.514;18.918;2022-07-23T09:12:26;5.30;;;3.30;;
62535;SDS011;48587;47.514;18.918;2022-07-23T09:17:27;5.70;;;3.30;;
62535;SDS011;48587;47.514;18.918;2022-07-23T09:22:47;6.60;;;3.10;;
62535;SDS011;48587;47.514;18.918;2022-07-23T09:27:57;5.80;;;3.30;;
62535;SDS011;48587;47.514;18.918;2022-07-23T09:33:15;11.20;;;3.10;;
62535;SDS011;48587;47.514;18.918;2022-07-23T09:38:16;6.60;;;3.40;;
62535;SDS011;48587;47.514;18.918;2022-07-23T09:43:28;10.60;;;3.60;;
62535;SDS011;48587;47.514;18.918;2022-07-23T09:48:28;4.40;;;3.10;;
62535;SDS011;48587;47.514;18.918;2022-07-23T09:53:30;6.30;;;3.20;;
62535;SDS011;48587;47.514;18.918;2022-07-23T09:58:30;8.20;;;3.70;;
62535;SDS011;48587;47.514;18.918;2022-07-23T10:03:31;4.00;;;3.20;;
62535;SDS011;48587;47.514;18.918;2022-07-23T10:08:59;4.10;;;3.20;;
62535;SDS011;48587;47.514;18.918;2022-07-23T10:14:30;7.90;;;3.90;;
62535;SDS011;48587;47.514;18.918;2022-07-23T10:19:36;5.70;;;3.40;;
62535;SDS011;48587;47.514;18.918;2022-07-23T10:24:56;6.20;;;3.50;;
62535;SDS011;48587;47.514;18.918;2022-07-23T10:30:12;5.60;;;3.80;;
62535;SDS011;48587;47.514;18.918;2022-07-23T10:35:43;5.70;;;3.70;;
62535;SDS011;48587;47.514;18.918;2022-07-23T10:40:59;5.30;;;3.60;;
62535;SDS011;48587;47.514;18.918;2022-07-23T10:46:22;21.50;;;4.70;;
62535;SDS011;48587;47.514;18.918;2022-07-23T10:52:15;7.70;;;4.00;;
62535;SDS011;48587;47.514;18.918;2022-07-23T10:57:18;4.90;;;4.00;;
62535;SDS011;48587;47.514;18.918;2022-07-23T11:02:22;14.80;;;4.20;;
62535;SDS011;48587;47.514;18.918;2022-07-23T11:17:28;4.40;;;3.70;;
62535;SDS011;48587;47.514;18.918;2022-07-23T11:22:34;8.50;;;4.60;;
62535;SDS011;48587;47.514;18.918;2022-07-23T11:27:39;5.10;;;3.50;;
62535;SDS011;48587;47.514;18.918;2022-07-23T11:32:41;6.10;;;4.10;;
62535;SDS011;48587;47.514;18.918;2022-07-23T11:37:43;7.60;;;3.90;;
62535;SDS011;48587;47.514;18.918;2022-07-23T11:43:18;7.00;;;4.20;;
62535;SDS011;48587;47.514;18.918;2022-07-23T11:48:22;4.90;;;4.10;;
62535;SDS011;48587;47.514;18.918;2022-07-23T11:53:29;6.50;;;3.70;;
62535;SDS011;48587;47.514;18.918;2022-07-23T11:58:31;11.60;;;4.00;;
62535;SDS011;48587;47.514;18.918;2022-07-23T12:03:33;6.10;;;4.50;;
62535;SDS011;48587;47.514;18.918;2022-07-23T12:08:36;5.00;;;4.00;;
62535;SDS011;48587;47.514;18.918;2022-07-23T12:13:41;5.70;;;4.50;;
62535;SDS011;48587;47.514;18.918;2022-07-23T12:18:42;8.30;;;4.50;;
62535;SDS011;48587;47.514;18.918;2022-07-23T12:23:43;4.50;;;4.00;;
62535;SDS011;48587;47.514;18.918;2022-07-23T12:28:51;8.30;;;4.10;;
62535;SDS011;48587;47.514;18.918;2022-07-23T12:33:52;6.00;;;3.90;;
62535;SDS011;48587;47.514;18.918;2022-07-23T12:38:53;6.10;;;4.70;;
62535;SDS011;48587;47.514;18.918;2022-07-23T12:43:54;7.70;;;4.90;;
62535;SDS011;48587;47.514;18.918;2022-07-23T12:48:55;6.00;;;4.70;;
62535;SDS011;48587;47.514;18.918;2022-07-23T12:54:07;8.40;;;4.70;;
62535;SDS011;48587;47.514;18.918;2022-07-23T12:59:10;6.80;;;4.90;;
62535;SDS011;48587;47.514;18.918;2022-07-23T13:04:18;5.90;;;4.60;;
62535;SDS011;48587;47.514;18.918;2022-07-23T13:09:21;8.40;;;4.50;;
62535;SDS011;48587;47.514;18.918;2022-07-23T13:14:23;7.70;;;4.10;;
62535;SDS011;48587;47.514;18.918;2022-07-23T13:19:25;6.60;;;4.20;;
62535;SDS011;48587;47.514;18.918;2022-07-23T13:24:27;4.50;;;3.80;;
62535;SDS011;48587;47.514;18.918;2022-07-23T13:29:28;7.80;;;4.30;;
62535;SDS011;48587;47.514;18.918;2022-07-23T13:34:29;6.50;;;3.90;;
62535;SDS011;48587;47.514;18.918;2022-07-23T13:39:30;9.00;;;3.90;;
62535;SDS011;48587;47.514;18.918;2022-07-23T13:44:31;7.10;;;4.60;;
62535;SDS011;48587;47.514;18.918;2022-07-23T13:54:33;6.30;;;4.40;;
62535;SDS011;48587;47.514;18.918;2022-07-23T13:59:34;10.50;;;4.00;;
62535;SDS011;48587;47.514;18.918;2022-07-23T14:04:35;7.60;;;3.90;;
62535;SDS011;48587;47.514;18.918;2022-07-23T14:09:36;5.80;;;3.90;;
62535;SDS011;48587;47.514;18.918;2022-07-23T14:14:38;5.00;;;4.40;;
62535;SDS011;48587;47.514;18.918;2022-07-23T14:19:39;40.20;;;5.90;;
62535;SDS011;48587;47.514;18.918;2022-07-23T14:24:40;11.30;;;4.30;;
62535;SDS011;48587;47.514;18.918;2022-07-23T14:29:41;7.50;;;3.80;;
62535;SDS011;48587;47.514;18.918;2022-07-23T14:34:43;4.50;;;3.60;;
62535;SDS011;48587;47.514;18.918;2022-07-23T14:39:44;6.00;;;4.00;;
62535;SDS011;48587;47.514;18.918;2022-07-23T14:44:46;7.30;;;4.50;;
62535;SDS011;48587;47.514;18.918;2022-07-23T14:49:47;4.90;;;4.50;;
62535;SDS011;48587;47.514;18.918;2022-07-23T14:54:47;5.10;;;4.60;;
62535;SDS011;48587;47.514;18.918;2022-07-23T14:59:48;7.20;;;4.50;;
62535;SDS011;48587;47.514;18.918;2022-07-23T15:04:49;5.90;;;4.40;;
62535;SDS011;48587;47.514;18.918;2022-07-23T15:09:50;6.60;;;4.10;;
62535;SDS011;48587;47.514;18.918;2022-07-23T15:14:52;8.80;;;4.50;;
62535;SDS011;48587;47.514;18.918;2022-07-23T15:19:53;7.80;;;4.40;;
62535;SDS011;48587;47.514;18.918;2022-07-23T15:24:54;5.70;;;4.30;;
62535;SDS011;48587;47.514;18.918;2022-07-23T15:29:55;32.80;;;9.30;;
62535;SDS011;48587;47.514;18.918;2022-07-23T15:34:56;19.60;;;6.80;;
62535;SDS011;48587;47.514;18.918;2022-07-23T15:39:57;17.70;;;7.00;;
62535;SDS011;48587;47.514;18.918;2022-07-23T15:44:58;8.90;;;6.70;;
62535;SDS011;48587;47.514;18.918;2022-07-23T15:49:59;10.10;;;7.00;;
62535;SDS011;48587;47.514;18.918;2022-07-23T15:55:00;9.80;;;6.80;;
62535;SDS011;48587;47.514;18.918;2022-07-23T16:00:01;14.00;;;7.80;;
62535;SDS011;48587;47.514;18.918;2022-07-23T16:05:04;16.50;;;7.60;;
62535;SDS011;48587;47.514;18.918;2022-07-23T16:10:06;8.20;;;6.50;;
62535;SDS011;48587;47.514;18.918;2022-07-23T16:15:09;7.90;;;7.10;;
62535;SDS011;48587;47.514;18.918;2022-07-23T16:20:10;12.50;;;7.60;;
62535;SDS011;48587;47.514;18.918;2022-07-23T16:25:12;8.90;;;6.90;;
62535;SDS011;48587;47.514;18.918;2022-07-23T16:30:13;9.40;;;7.10;;
62535;SDS011;48587;47.514;18.918;2022-07-23T16:35:14;11.50;;;7.00;;
62535;SDS011;48587;47.514;18.918;2022-07-23T16:40:15;9.10;;;7.00;;
62535;SDS011;48587;47.514;18.918;2022-07-23T16:45:16;11.20;;;8.50;;
62535;SDS011;48587;47.514;18.918;2022-07-23T16:50:17;10.80;;;7.60;;
62535;SDS011;48587;47.514;18.918;2022-07-23T16:55:18;12.40;;;8.70;;
62535;SDS011;48587;47.514;18.918;2022-07-23T17:00:19;10.90;;;8.50;;
62535;SDS011;48587;47.514;18.918;2022-07-23T17:05:21;9.90;;;8.70;;
62535;SDS011;48587;47.514;18.918;2022-07-23T17:10:22;10.90;;;8.00;;
62535;SDS011;48587;47.514;18.918;2022-07-23T17:15:23;10.80;;;7.60;;
62535;SDS011;48587;47.514;18.918;2022-07-23T17:20:24;7.50;;;6.70;;
62535;SDS011;48587;47.514;18.918;2022-07-23T17:25:25;9.90;;;6.90;;
62535;SDS011;48587;47.514;18.918;2022-07-23T17:30:26;6.60;;;5.30;;
62535;SDS011;48587;47.514;18.918;2022-07-23T17:35:27;6.60;;;5.90;;
62535;SDS011;48587;47.514;18.918;2022-07-23T17:40:28;7.20;;;6.50;;
62535;SDS011;48587;47.514;18.918;2022-07-23T17:45:29;6.70;;;6.00;;
62535;SDS011;48587;47.514;18.918;2022-07-23T17:50:30;6.80;;;6.10;;
62535;SDS011;48587;47.514;18.918;2022-07-23T17:55:32;7.30;;;6.50;;
62535;SDS011;48587;47.514;18.918;2022-07-23T18:00:35;9.60;;;6.50;;
62535;SDS011;48587;47.514;18.918;2022-07-23T18:05:37;6.40;;;5.60;;
62535;SDS011;48587;47.514;18.918;2022-07-23T18:10:38;7.20;;;6.00;;
62535;SDS011;48587;47.514;18.918;2022-07-23T18:15:39;11.30;;;10.30;;
62535;SDS011;48587;47.514;18.918;2022-07-23T18:20:40;6.20;;;5.40;;
62535;SDS011;48587;47.514;18.918;2022-07-23T18:25:41;7.80;;;5.80;;
62535;SDS011;48587;47.514;18.918;2022-07-23T18:30:42;7.20;;;5.90;;
62535;SDS011;48587;47.514;18.918;2022-07-23T18:35:43;6.50;;;5.60;;
62535;SDS011;48587;47.514;18.918;2022-07-23T18:40:45;6.40;;;5.70;;
62535;SDS011;48587;47.514;18.918;2022-07-23T18:45:47;7.80;;;6.90;;
62535;SDS011;48587;47.514;18.918;2022-07-23T18:50:47;6.90;;;6.20;;
62535;SDS011;48587;47.514;18.918;2022-07-23T18:55:48;7.60;;;6.80;;
62535;SDS011;48587;47.514;18.918;2022-07-23T19:00:49;8.00;;;6.90;;
62535;SDS011;48587;47.514;18.918;2022-07-23T19:05:50;8.40;;;7.10;;
62535;SDS011;48587;47.514;18.918;2022-07-23T19:10:51;10.10;;;7.70;;
62535;SDS011;48587;47.514;18.918;2022-07-23T19:15:53;11.40;;;8.40;;
62535;SDS011;48587;47.514;18.918;2022-07-23T19:20:56;9.10;;;8.10;;
62535;SDS011;48587;47.514;18.918;2022-07-23T19:25:57;11.30;;;8.80;;
62535;SDS011;48587;47.514;18.918;2022-07-23T19:30:58;8.80;;;7.90;;
62535;SDS011;48587;47.514;18.918;2022-07-23T19:35:59;14.00;;;8.20;;
62535;SDS011;48587;47.514;18.918;2022-07-23T19:41:01;8.90;;;8.00;;
62535;SDS011;48587;47.514;18.918;2022-07-23T19:46:02;10.50;;;8.70;;
62535;SDS011;48587;47.514;18.918;2022-07-23T19:51:04;11.80;;;7.60;;
62535;SDS011;48587;47.514;18.918;2022-07-23T19:56:04;10.00;;;8.60;;
62535;SDS011;48587;47.514;18.918;2022-07-23T20:01:05;10.60;;;7.70;;
62535;SDS011;48587;47.514;18.918;2022-07-23T20:06:07;11.80;;;8.70;;
62535;SDS011;48587;47.514;18.918;2022-07-23T20:11:08;9.90;;;8.90;;
62535;SDS011;48587;47.514;18.918;2022-07-23T20:16:10;10.10;;;8.40;;
62535;SDS011;48587;47.514;18.918;2022-07-23T20:21:11;9.70;;;6.70;;
62535;SDS011;48587;47.514;18.918;2022-07-23T20:26:12;9.60;;;6.60;;
62535;SDS011;48587;47.514;18.918;2022-07-23T20:31:13;10.30;;;7.00;;
62535;SDS011;48587;47.514;18.918;2022-07-23T20:36:14;7.90;;;6.50;;
62535;SDS011;48587;47.514;18.918;2022-07-23T20:41:16;10.60;;;6.80;;
62535;SDS011;48587;47.514;18.918;2022-07-23T20:46:17;7.80;;;6.00;;
62535;SDS011;48587;47.514;18.918;2022-07-23T20:51:19;9.40;;;6.10;;
62535;SDS011;48587;47.514;18.918;2022-07-23T20:56:20;7.10;;;6.00;;
62535;SDS011;48587;47.514;18.918;2022-07-23T21:01:21;6.00;;;5.40;;
62535;SDS011;48587;47.514;18.918;2022-07-23T21:06:22;8.70;;;6.10;;
62535;SDS011;48587;47.514;18.918;2022-07-23T21:11:23;6.50;;;5.30;;
62535;SDS011;48587;47.514;18.918;2022-07-23T21:16:24;10.10;;;5.60;;
62535;SDS011;48587;47.514;18.918;2022-07-23T21:21:25;8.60;;;5.90;;
62535;SDS011;48587;47.514;18.918;2022-07-23T21:26:26;8.10;;;6.70;;
62535;SDS011;48587;47.514;18.918;2022-07-23T21:31:27;5.90;;;5.20;;
62535;SDS011;48587;47.514;18.918;2022-07-23T21:36:28;5.70;;;5.00;;
62535;SDS011;48587;47.514;18.918;2022-07-23T21:41:29;6.40;;;5.70;;
62535;SDS011;48587;47.514;18.918;2022-07-23T21:46:32;8.50;;;5.80;;
62535;SDS011;48587;47.514;18.918;2022-07-23T21:51:34;7.00;;;5.30;;
62535;SDS011;48587;47.514;18.918;2022-07-23T21:56:35;6.30;;;5.40;;
62535;SDS011;48587;47.514;18.918;2022-07-23T22:01:37;6.60;;;5.10;;
62535;SDS011;48587;47.514;18.918;2022-07-23T22:06:38;9.70;;;5.40;;
62535;SDS011;48587;47.514;18.918;2022-07-23T22:11:39;6.80;;;5.20;;
62535;SDS011;48587;47.514;18.918;2022-07-23T22:16:40;7.90;;;5.80;;
62535;SDS011;48587;47.514;18.918;2022-07-23T22:21:41;5.90;;;5.00;;
62535;SDS011;48587;47.514;18.918;2022-07-23T22:26:43;6.70;;;5.30;;
62535;SDS011;48587;47.514;18.918;2022-07-23T22:31:44;7.20;;;5.40;;
62535;SDS011;48587;47.514;18.918;2022-07-23T22:36:45;7.30;;;5.10;;
62535;SDS011;48587;47.514;18.918;2022-07-23T22:41:46;8.10;;;5.90;;
62535;SDS011;48587;47.514;18.918;2022-07-23T22:46:47;7.90;;;6.00;;
62535;SDS011;48587;47.514;18.918;2022-07-23T22:51:48;8.10;;;5.80;;
62535;SDS011;48587;47.514;18.918;2022-07-23T22:56:48;7.20;;;5.80;;
62535;SDS011;48587;47.514;18.918;2022-07-23T23:01:49;6.80;;;5.90;;
62535;SDS011;48587;47.514;18.918;2022-07-23T23:06:50;7.30;;;6.60;;
62535;SDS011;48587;47.514;18.918;2022-07-23T23:11:51;7.20;;;6.10;;
62535;SDS011;48587;47.514;18.918;2022-07-23T23:16:52;11.50;;;6.20;;
62535;SDS011;48587;47.514;18.918;2022-07-23T23:21:53;6.90;;;5.70;;
62535;SDS011;48587;47.514;18.918;2022-07-23T23:26:54;7.30;;;6.20;;
62535;SDS011;48587;47.514;18.918;2022-07-23T23:31:55;8.10;;;5.90;;
62535;SDS011;48587;47.514;18.918;2022-07-23T23:36:56;7.10;;;5.90;;
62535;SDS011;48587;47.514;18.918;2022-07-23T23:41:57;7.50;;;6.10;;
62535;SDS011;48587;47.514;18.918;2022-07-23T23:46:58;9.30;;;6.90;;
62535;SDS011;48587;47.514;18.918;2022-07-23T23:51:59;9.60;;;6.60;;
62535;SDS011;48587;47.514;18.918;2022-07-23T23:57:00;7.30;;;6.10;;
